Portada
METAR-TAF:

METAR-TAF

Aeropuertos :

Aeropuerto Internacional de Wellington

Wellington, Nueva Zelanda

latitud: 41-20S, longitud: 174-48E, altitud: 12 m

Observación

El informe se hizo hace 34 minutos, a las 02:00 UTC
Viento 17 kt del norte
Temperatura 17°C
Humedad 63%
Presión 1013 hPa
Visibilidad 10 km o más

METAR: NZWN 200200Z AUTO 01017KT 9999 SCT029/// BKN034/// 17/10 Q1013 NOSIG

Hora: 15:34 (02:34 UTC)

Pronóstico

El informe se hizo hace 3 horas y 24 minutos, a las 23:10 UTC
Pronóstico válido del 20 a las 00 UTC al 21 a las 00 UTC
Viento 15 kt del norte
Visibilidad 10 km o más
Nubes dispersas a una altura de 2500 ft
Evolucionando progresivamente
del 20 a las 05 UTC al 20 a las 07 UTC
Viento 5 kt del norte-noreste
Evolucionando progresivamente
del 20 a las 22 UTC al 21 a las 00 UTC
Viento 15 kt del norte

TAF: NZWN 192310Z 2000/2100 35015KT 9999 SCT025 BECMG 2005/2007 02005KT BECMG 2022/2100 36015KT

Observaciones y pronósticos meteorológicos de más de 4000 aeropuertos (mensajes METAR y TAF).

Los puntos amarillos y rojos representan las estaciones disponibles.

Ponga el ratón en el punto deseado para ver el nombre de la estación.

Haga clic para ver las observaciones y los pronósticos meteorológicos.

Para cambiar el mapa : haga clic en los botones verdes con una cruz de color negro para hacer un zoom, en el botón verde con un guión para alejar o en las flechas verdes para mapas adyacentes.


METAR-TAF: